createdAt,value
2023-02-19T00:01:53.676Z,25.08
2023-02-19T00:04:23.763Z,26.35
2023-02-19T00:06:52.376Z,24.77
2023-02-19T00:09:21.692Z,28.52
2023-02-19T00:11:51.342Z,25.92
2023-02-19T00:14:21.124Z,31.73
2023-02-19T00:16:49.936Z,21.25
2023-02-19T00:19:19.866Z,19.67
2023-02-19T00:21:48.297Z,17.38
2023-02-19T00:24:16.776Z,22.08
2023-02-19T00:26:45.980Z,29.95
2023-02-19T00:29:18.067Z,31.00
2023-02-19T00:31:46.876Z,29.00
2023-02-19T00:34:15.635Z,21.98
2023-02-19T00:36:44.427Z,25.23
2023-02-19T00:39:15.703Z,30.67
2023-02-19T00:41:44.024Z,22.92
2023-02-19T00:44:13.314Z,19.70
2023-02-19T00:46:44.170Z,22.50
2023-02-19T00:49:16.884Z,23.45
2023-02-19T00:51:44.851Z,31.77
2023-02-19T00:54:13.937Z,26.65
2023-02-19T00:56:42.410Z,30.48
2023-02-19T00:59:10.803Z,24.48
2023-02-19T01:01:39.359Z,32.88
2023-02-19T01:04:08.888Z,35.33
2023-02-19T01:06:37.473Z,30.67
2023-02-19T01:09:07.129Z,33.10
2023-02-19T01:11:35.818Z,34.63
2023-02-19T01:14:05.129Z,29.17
2023-02-19T01:16:33.316Z,35.17
2023-02-19T01:19:01.542Z,37.30
2023-02-19T01:21:31.909Z,29.85
2023-02-19T01:24:01.471Z,21.55
2023-02-19T01:26:31.662Z,23.58
2023-02-19T01:29:00.197Z,23.50
2023-02-19T01:31:29.110Z,28.38
2023-02-19T01:33:59.294Z,30.88
2023-02-19T01:36:28.272Z,30.52
2023-02-19T01:38:57.646Z,25.20
2023-02-19T01:41:27.267Z,30.17
2023-02-19T01:44:08.222Z,24.00
2023-02-19T01:46:37.400Z,30.05
2023-02-19T01:49:11.371Z,29.83
2023-02-19T01:51:42.481Z,38.13
2023-02-19T01:54:14.530Z,32.17
2023-02-19T01:56:44.725Z,28.60
2023-02-19T01:59:13.376Z,35.63
2023-02-19T02:01:42.394Z,36.50
2023-02-19T02:04:13.002Z,27.73
2023-02-19T02:06:49.266Z,32.55
2023-02-19T02:09:38.057Z,25.77
2023-02-19T02:12:06.197Z,30.75
2023-02-19T02:14:38.142Z,25.05
2023-02-19T02:17:17.515Z,37.13
2023-02-19T02:20:09.653Z,24.65
2023-02-19T02:22:42.308Z,20.02
2023-02-19T02:25:42.281Z,19.63
2023-02-19T02:28:32.413Z,20.17
2023-02-19T02:31:08.769Z,26.40
2023-02-19T02:33:40.948Z,30.95
2023-02-19T02:36:13.890Z,30.35
2023-02-19T02:38:46.063Z,27.27
2023-02-19T02:41:15.652Z,33.85
2023-02-19T02:43:43.852Z,20.60
2023-02-19T02:46:15.071Z,22.25
2023-02-19T02:48:47.497Z,19.63
2023-02-19T02:51:19.931Z,19.50
2023-02-19T02:54:09.907Z,14.48
2023-02-19T02:56:40.287Z,22.58
2023-02-19T02:59:11.126Z,25.98
2023-02-19T03:02:02.658Z,29.40
2023-02-19T03:04:37.230Z,18.75
2023-02-19T03:07:09.665Z,21.73
2023-02-19T03:09:43.274Z,17.20
2023-02-19T03:12:34.145Z,15.18
2023-02-19T03:15:27.020Z,17.55
2023-02-19T03:18:20.288Z,24.02
2023-02-19T03:20:54.202Z,26.13
2023-02-19T03:23:47.655Z,22.75
2023-02-19T03:26:16.787Z,15.60
2023-02-19T03:29:06.858Z,17.20
2023-02-19T03:31:35.602Z,22.25
2023-02-19T03:34:09.999Z,16.30
2023-02-19T03:36:44.458Z,18.15
2023-02-19T03:39:16.462Z,22.63
2023-02-19T03:41:50.032Z,27.42
2023-02-19T03:44:24.090Z,17.98
2023-02-19T03:47:00.527Z,18.35
2023-02-19T03:49:36.258Z,12.82
2023-02-19T03:52:12.491Z,17.13
2023-02-19T03:54:48.472Z,14.68
2023-02-19T03:57:22.421Z,23.05
2023-02-19T03:59:54.725Z,19.88
2023-02-19T04:02:31.000Z,25.15
2023-02-19T04:05:09.244Z,20.20
2023-02-19T04:07:42.255Z,20.95
2023-02-19T04:10:11.089Z,17.75
2023-02-19T04:12:42.236Z,16.65
2023-02-19T04:15:13.841Z,19.58
2023-02-19T04:17:48.127Z,19.23
2023-02-19T04:20:20.096Z,15.63
2023-02-19T04:22:48.697Z,19.13
2023-02-19T04:25:16.709Z,15.10
2023-02-19T04:27:47.230Z,9.18
2023-02-19T04:30:15.864Z,12.43
2023-02-19T04:32:43.778Z,14.02
2023-02-19T04:35:11.994Z,18.67
2023-02-19T04:37:41.849Z,19.35
2023-02-19T04:40:11.296Z,15.52
2023-02-19T04:42:39.243Z,13.43
2023-02-19T04:45:07.850Z,18.13
2023-02-19T04:47:35.803Z,17.80
2023-02-19T04:50:03.901Z,29.38
2023-02-19T04:52:33.319Z,16.60
2023-02-19T04:55:02.761Z,15.38
2023-02-19T04:57:30.761Z,18.13
2023-02-19T04:59:58.754Z,21.13
2023-02-19T05:02:26.743Z,9.70
2023-02-19T05:04:55.130Z,7.78
2023-02-19T05:07:23.277Z,14.73
2023-02-19T05:09:51.712Z,14.60
2023-02-19T05:12:23.540Z,12.52
2023-02-19T05:14:51.470Z,12.57
2023-02-19T05:17:19.436Z,6.30
2023-02-19T05:19:47.527Z,13.32
2023-02-19T05:22:15.776Z,27.83
2023-02-19T05:24:44.020Z,11.90
2023-02-19T05:27:12.012Z,5.90
2023-02-19T05:29:41.435Z,15.02
2023-02-19T05:32:09.443Z,15.93
2023-02-19T05:34:37.328Z,12.40
2023-02-19T05:37:05.289Z,10.98
2023-02-19T05:39:33.200Z,13.40
2023-02-19T05:42:01.113Z,11.48
2023-02-19T05:44:29.248Z,12.02
2023-02-19T05:46:58.836Z,8.45
2023-02-19T05:49:26.950Z,16.95
2023-02-19T05:51:54.977Z,13.48
2023-02-19T05:54:23.154Z,12.05
2023-02-19T05:56:51.303Z,7.35
2023-02-19T05:59:22.293Z,20.85
2023-02-19T06:01:51.186Z,25.63
2023-02-19T06:04:21.073Z,13.30
2023-02-19T06:06:49.597Z,9.65
2023-02-19T06:09:18.112Z,10.30
2023-02-19T06:11:46.166Z,14.35
2023-02-19T06:14:14.700Z,14.23
2023-02-19T06:16:42.853Z,14.63
2023-02-19T06:19:11.776Z,8.25
2023-02-19T06:21:41.660Z,15.07
2023-02-19T06:24:10.444Z,14.35
2023-02-19T06:26:39.239Z,15.15
2023-02-19T06:29:10.357Z,15.88
2023-02-19T06:31:38.940Z,17.02
2023-02-19T06:34:07.600Z,12.32
2023-02-19T06:36:35.946Z,11.23
2023-02-19T06:39:06.623Z,8.40
2023-02-19T06:41:34.884Z,22.73
2023-02-19T06:44:02.897Z,17.23
2023-02-19T06:46:31.136Z,12.32
2023-02-19T06:48:59.459Z,12.93
2023-02-19T06:51:29.684Z,14.00
2023-02-19T06:53:58.403Z,16.63
2023-02-19T06:56:29.533Z,26.33
2023-02-19T06:58:59.859Z,18.70
2023-02-19T07:01:31.179Z,20.70
2023-02-19T07:03:59.508Z,18.65
2023-02-19T07:06:28.805Z,21.13
2023-02-19T07:08:58.284Z,15.80
2023-02-19T07:11:30.726Z,19.85
2023-02-19T07:13:59.323Z,20.17
2023-02-19T07:16:28.263Z,19.42
2023-02-19T07:18:57.755Z,26.25
2023-02-19T07:21:28.327Z,14.10
2023-02-19T07:23:56.722Z,26.15
2023-02-19T07:26:25.049Z,13.48
2023-02-19T07:28:54.360Z,15.48
2023-02-19T07:31:24.792Z,30.13
2023-02-19T07:33:53.856Z,31.27
2023-02-19T07:36:24.624Z,21.17
2023-02-19T07:38:56.652Z,23.73
2023-02-19T07:41:25.528Z,17.60
2023-02-19T07:43:55.519Z,18.95
2023-02-19T07:46:24.117Z,33.35
2023-02-19T07:48:52.490Z,20.17
2023-02-19T07:51:21.578Z,25.23
2023-02-19T07:53:51.438Z,16.30
2023-02-19T07:56:21.043Z,22.80
2023-02-19T07:58:49.036Z,30.48
2023-02-19T08:01:40.058Z,22.52
2023-02-19T08:04:07.313Z,26.25
2023-02-19T08:06:35.224Z,26.23
2023-02-19T08:09:03.113Z,27.13
2023-02-19T08:11:48.492Z,23.98
2023-02-19T08:14:18.340Z,26.17
2023-02-19T08:16:51.837Z,11.90
2023-02-19T08:19:20.405Z,21.80
2023-02-19T08:21:48.381Z,19.30
2023-02-19T08:24:17.122Z,20.85
2023-02-19T08:26:45.168Z,16.02
2023-02-19T08:29:13.178Z,36.25
2023-02-19T08:31:41.272Z,20.67
2023-02-19T08:34:12.163Z,19.92
2023-02-19T08:36:40.147Z,14.63
2023-02-19T08:39:08.158Z,24.95
2023-02-19T08:41:36.131Z,24.25
2023-02-19T08:44:04.022Z,19.77
2023-02-19T08:46:34.277Z,13.90
2023-02-19T08:49:02.464Z,22.63
2023-02-19T08:51:31.889Z,25.58
2023-02-19T08:53:59.785Z,19.17
2023-02-19T08:56:27.726Z,15.10
2023-02-19T08:58:55.744Z,16.73
2023-02-19T09:01:24.009Z,18.83
2023-02-19T09:03:52.113Z,20.48
2023-02-19T09:06:21.862Z,12.23
2023-02-19T09:08:51.376Z,19.08
2023-02-19T09:11:19.771Z,20.77
2023-02-19T09:13:48.159Z,20.33
2023-02-19T09:16:16.363Z,20.33
2023-02-19T09:18:46.227Z,24.90
2023-02-19T09:21:14.294Z,28.70
2023-02-19T09:23:42.641Z,35.03
2023-02-19T09:26:14.102Z,22.98
2023-02-19T09:28:43.209Z,18.33
2023-02-19T09:31:13.570Z,20.20
2023-02-19T09:33:44.629Z,26.92
2023-02-19T09:36:13.442Z,21.88
2023-02-19T09:38:41.444Z,28.15
2023-02-19T09:41:17.316Z,27.42
2023-02-19T09:43:45.801Z,27.52
2023-02-19T09:46:25.461Z,28.40
2023-02-19T09:48:55.207Z,27.20
2023-02-19T09:51:24.041Z,36.25
2023-02-19T09:53:54.634Z,31.13
2023-02-19T09:56:26.043Z,26.73
2023-02-19T09:58:58.194Z,25.88
2023-02-19T10:01:32.484Z,28.25
2023-02-19T10:04:00.657Z,33.33
2023-02-19T10:06:30.941Z,25.02
2023-02-19T10:09:14.004Z,34.90
2023-02-19T10:11:46.808Z,24.27
2023-02-19T10:14:26.721Z,26.65
2023-02-19T10:16:57.047Z,35.40
2023-02-19T10:19:26.257Z,32.92
2023-02-19T10:21:54.443Z,33.85
2023-02-19T10:24:29.815Z,30.92
2023-02-19T10:26:59.225Z,35.03
2023-02-19T10:29:27.367Z,33.22
2023-02-19T10:32:14.210Z,37.80
2023-02-19T10:34:42.205Z,39.50
2023-02-19T10:37:15.680Z,30.25
2023-02-19T10:39:46.835Z,32.83
2023-02-19T10:42:22.144Z,33.03
2023-02-19T10:44:54.638Z,40.35
2023-02-19T10:47:24.821Z,34.67
2023-02-19T10:49:57.825Z,34.25
2023-02-19T10:52:28.565Z,40.95
2023-02-19T10:55:20.933Z,35.35
2023-02-19T10:57:50.920Z,32.33
2023-02-19T11:00:24.364Z,35.47
2023-02-19T11:03:22.203Z,37.83
2023-02-19T11:06:00.895Z,37.38
2023-02-19T11:08:29.647Z,17.58
2023-02-19T11:10:57.683Z,14.80
2023-02-19T11:13:32.522Z,28.60
2023-02-19T11:16:01.474Z,23.80
2023-02-19T11:18:31.897Z,16.33
2023-02-19T11:21:03.788Z,19.55
2023-02-19T11:23:33.955Z,17.45
2023-02-19T11:26:04.627Z,21.90
2023-02-19T11:28:36.041Z,22.13
2023-02-19T11:31:30.059Z,22.77
2023-02-19T11:34:03.038Z,22.48
2023-02-19T11:36:33.859Z,21.95
2023-02-19T11:39:21.035Z,19.52
2023-02-19T11:42:07.811Z,18.70
2023-02-19T11:44:51.901Z,29.20
2023-02-19T11:47:40.909Z,24.85
2023-02-19T11:50:22.144Z,22.75
2023-02-19T11:53:01.958Z,30.08
2023-02-19T11:55:45.566Z,26.55
2023-02-19T11:58:36.924Z,23.23
2023-02-19T12:01:17.363Z,15.52
2023-02-19T12:03:58.334Z,22.75
2023-02-19T12:06:36.251Z,27.92
2023-02-19T12:09:20.334Z,25.42
2023-02-19T12:12:14.241Z,26.38
2023-02-19T12:15:00.465Z,20.40
2023-02-19T12:17:49.949Z,34.72
2023-02-19T12:20:26.728Z,21.65
2023-02-19T12:23:11.625Z,31.85
2023-02-19T12:25:51.166Z,23.23
2023-02-19T12:28:37.838Z,22.95
2023-02-19T12:31:33.020Z,29.00
2023-02-19T12:34:22.778Z,21.65
2023-02-19T12:37:03.336Z,18.80
2023-02-19T12:39:40.723Z,18.20
2023-02-19T12:42:16.805Z,25.10
2023-02-19T12:44:52.919Z,18.60
2023-02-19T12:47:29.584Z,19.45
2023-02-19T12:50:17.442Z,25.88
2023-02-19T12:52:50.779Z,27.25
2023-02-19T12:55:23.856Z,25.85
2023-02-19T12:57:53.521Z,23.58
2023-02-19T13:00:31.041Z,25.73
2023-02-19T13:03:04.089Z,28.45
2023-02-19T13:05:45.266Z,22.77
2023-02-19T13:08:20.835Z,29.27
2023-02-19T13:10:55.152Z,25.75
2023-02-19T13:13:28.717Z,23.90
2023-02-19T13:16:01.496Z,27.52
2023-02-19T13:18:35.302Z,22.15
2023-02-19T13:21:06.647Z,24.27
2023-02-19T13:23:54.949Z,28.85
2023-02-19T13:27:05.908Z,22.38
2023-02-19T13:29:53.622Z,22.45
2023-02-19T13:32:55.925Z,33.42
2023-02-19T13:35:36.889Z,26.38
2023-02-19T13:38:07.716Z,31.02
2023-02-19T13:40:39.292Z,23.90
2023-02-19T13:43:24.202Z,27.88
2023-02-19T13:45:58.568Z,28.83
2023-02-19T13:48:29.673Z,27.30
2023-02-19T13:51:36.853Z,28.25
2023-02-19T13:54:15.490Z,25.55
2023-02-19T13:56:43.469Z,28.95
2023-02-19T13:59:25.253Z,25.75
2023-02-19T14:02:35.179Z,25.42
2023-02-19T14:05:07.628Z,26.98
2023-02-19T14:07:52.331Z,31.05
2023-02-19T14:10:57.725Z,19.35
2023-02-19T14:13:58.158Z,26.33
2023-02-19T14:17:04.830Z,23.10
2023-02-19T14:19:52.270Z,26.05
2023-02-19T14:22:50.167Z,25.55
2023-02-19T14:25:30.637Z,32.88
2023-02-19T14:28:04.262Z,33.85
2023-02-19T14:30:34.816Z,13.27
2023-02-19T14:33:10.938Z,26.23
2023-02-19T14:35:42.451Z,24.35
2023-02-19T14:38:18.455Z,24.30
2023-02-19T14:40:49.163Z,20.85
2023-02-19T14:43:32.662Z,22.10
2023-02-19T14:46:19.387Z,24.58
2023-02-19T14:48:51.023Z,38.67
2023-02-19T14:51:35.407Z,26.00
2023-02-19T14:54:15.987Z,29.70
2023-02-19T14:57:20.991Z,29.70
2023-02-19T15:00:54.395Z,25.60
2023-02-19T15:04:01.891Z,36.80
2023-02-19T15:06:57.194Z,33.22
2023-02-19T15:10:02.426Z,30.90
2023-02-19T15:13:09.940Z,26.52
2023-02-19T15:17:00.650Z,27.45
2023-02-19T15:20:46.196Z,27.60
2023-02-19T16:07:31.057Z,29.75
2023-02-19T16:15:28.571Z,29.60
2023-02-19T16:38:35.905Z,34.13
2023-02-19T17:03:38.818Z,31.10
2023-02-19T17:06:34.850Z,39.95
2023-02-19T17:09:14.144Z,26.63
2023-02-19T17:12:25.578Z,33.70
2023-02-19T17:16:01.747Z,29.55
2023-02-19T17:22:27.971Z,28.50
2023-02-19T17:31:52.978Z,23.10
2023-02-19T17:35:48.559Z,27.17
2023-02-19T17:38:27.711Z,31.63
2023-02-19T17:41:29.223Z,48.42
2023-02-19T17:45:08.413Z,32.88
2023-02-19T17:49:16.366Z,19.98
2023-02-19T17:55:26.652Z,23.85
2023-02-19T18:07:54.083Z,32.08
2023-02-19T18:10:52.917Z,47.03
2023-02-19T18:13:21.362Z,46.40
2023-02-19T18:15:49.413Z,39.35
2023-02-19T18:18:17.356Z,20.67
2023-02-19T18:20:45.441Z,18.35
2023-02-19T18:23:14.778Z,26.75
2023-02-19T18:25:44.110Z,21.77
2023-02-19T18:28:15.042Z,47.70
2023-02-19T18:30:43.139Z,32.25
2023-02-19T18:33:13.433Z,31.77
2023-02-19T18:35:41.721Z,42.83
2023-02-19T18:38:09.715Z,25.23
2023-02-19T18:40:43.337Z,23.38
2023-02-19T18:43:29.370Z,20.73
2023-02-19T18:49:13.905Z,22.33
2023-02-19T18:52:10.086Z,30.33
2023-02-19T18:55:11.092Z,20.40
2023-02-19T18:57:52.351Z,31.45
2023-02-19T19:00:38.121Z,23.48
2023-02-19T19:03:31.639Z,28.05
2023-02-19T19:06:27.959Z,56.85
2023-02-19T19:09:01.861Z,31.23
2023-02-19T19:11:38.398Z,37.33
2023-02-19T19:14:08.069Z,30.98
2023-02-19T19:16:36.164Z,30.08
2023-02-19T19:19:12.208Z,42.95
2023-02-19T19:21:40.426Z,32.67
2023-02-19T19:24:38.495Z,32.13
2023-02-19T19:27:07.045Z,37.33
2023-02-19T19:29:36.670Z,28.77
2023-02-19T19:32:08.112Z,43.55
2023-02-19T19:34:41.815Z,36.47
2023-02-19T19:37:14.560Z,33.63
2023-02-19T19:39:45.684Z,30.95
2023-02-19T19:42:15.904Z,46.38
2023-02-19T19:44:58.212Z,28.48
2023-02-19T19:47:32.446Z,32.13
2023-02-19T19:50:01.754Z,33.75
2023-02-19T19:52:30.004Z,42.67
2023-02-19T19:55:01.918Z,37.75
2023-02-19T19:58:02.078Z,34.22
2023-02-19T20:00:52.329Z,27.08
2023-02-19T20:03:53.414Z,35.22
2023-02-19T20:06:32.152Z,27.25
2023-02-19T20:12:22.941Z,19.08
2023-02-19T20:15:19.186Z,20.85
2023-02-19T20:17:55.469Z,20.75
2023-02-19T20:20:56.723Z,27.05
2023-02-19T20:23:48.033Z,22.15
2023-02-19T20:27:07.093Z,30.17
2023-02-19T20:29:44.747Z,27.92
2023-02-19T20:32:15.560Z,17.23
2023-02-19T20:34:59.608Z,14.32
2023-02-19T20:37:33.817Z,33.22
2023-02-19T20:40:02.378Z,28.35
2023-02-19T20:42:32.264Z,28.95
2023-02-19T20:45:00.891Z,22.83
2023-02-19T20:47:29.168Z,19.58
2023-02-19T20:49:58.830Z,23.63
2023-02-19T20:52:26.823Z,23.27
2023-02-19T20:54:56.362Z,24.33
2023-02-19T20:57:24.626Z,26.38
2023-02-19T21:00:09.100Z,24.08
2023-02-19T21:03:26.619Z,24.20
2023-02-19T21:06:23.025Z,42.63
2023-02-19T21:08:51.368Z,55.40
2023-02-19T21:11:19.678Z,30.52
2023-02-19T21:14:27.639Z,45.65
2023-02-19T21:16:58.184Z,36.42
2023-02-19T21:19:43.870Z,27.48
2023-02-19T21:22:29.818Z,24.25
2023-02-19T21:24:58.261Z,32.15
2023-02-19T21:27:31.877Z,34.45
2023-02-19T21:30:08.562Z,24.00
2023-02-19T21:36:41.150Z,37.72
2023-02-19T21:39:28.595Z,34.03
2023-02-19T21:41:58.680Z,26.02
2023-02-19T21:46:17.405Z,22.45
2023-02-19T21:48:17.423Z,23.33
2023-02-19T21:50:48.952Z,18.25
2023-02-19T21:53:17.367Z,25.10
2023-02-19T21:55:58.341Z,31.10
2023-02-19T21:58:26.817Z,24.63
2023-02-19T22:00:58.223Z,25.58
2023-02-19T22:03:27.454Z,18.23
2023-02-19T22:05:55.763Z,32.50
2023-02-19T22:08:23.791Z,30.55
2023-02-19T22:10:53.263Z,18.90
2023-02-19T22:13:21.761Z,17.98
2023-02-19T22:15:50.156Z,21.15
2023-02-19T22:18:18.130Z,16.73
2023-02-19T22:20:46.609Z,23.73
2023-02-19T22:23:16.082Z,22.52
2023-02-19T22:25:44.632Z,22.23
2023-02-19T22:28:13.985Z,22.38
2023-02-19T22:30:43.043Z,22.23
2023-02-19T22:33:11.651Z,21.40
2023-02-19T22:35:39.945Z,24.48
2023-02-19T22:38:10.589Z,16.45
2023-02-19T22:40:38.917Z,11.48
2023-02-19T22:43:07.099Z,12.15
2023-02-19T22:45:36.672Z,21.05
2023-02-19T22:48:04.786Z,18.50
2023-02-19T22:50:32.908Z,19.00
2023-02-19T22:53:01.286Z,23.80
2023-02-19T22:55:29.309Z,24.50
2023-02-19T22:57:57.432Z,15.77
2023-02-19T23:00:25.652Z,21.27
2023-02-19T23:02:55.300Z,21.38
2023-02-19T23:05:24.645Z,18.17
2023-02-19T23:07:52.538Z,16.13
2023-02-19T23:10:20.648Z,19.92
2023-02-19T23:12:48.601Z,20.45
2023-02-19T23:15:16.999Z,22.58
2023-02-19T23:17:45.051Z,25.33
2023-02-19T23:20:14.803Z,21.60
2023-02-19T23:22:43.672Z,22.88
2023-02-19T23:25:11.708Z,22.27
2023-02-19T23:27:39.616Z,19.73
2023-02-19T23:30:08.839Z,18.98
2023-02-19T23:32:36.911Z,21.63
2023-02-19T23:35:04.903Z,16.10
2023-02-19T23:37:34.304Z,14.43
2023-02-19T23:40:02.310Z,23.52
2023-02-19T23:42:31.630Z,14.60
2023-02-19T23:44:59.908Z,19.20
2023-02-19T23:47:30.668Z,14.90
2023-02-19T23:49:58.706Z,19.50
2023-02-19T23:52:26.811Z,15.55
2023-02-19T23:54:56.771Z,14.35
2023-02-19T23:57:24.716Z,18.92
2023-02-19T23:59:52.924Z,15.55
